sensor_id;sensor_type;location;lat;lon;timestamp;temperature;humidity
9881;DHT22;4979;51.014;6.678;2023-03-24T00:00:18;12.80;99.90
9881;DHT22;4979;51.014;6.678;2023-03-24T00:02:45;12.70;99.90
9881;DHT22;4979;51.014;6.678;2023-03-24T00:05:18;12.70;99.90
9881;DHT22;4979;51.014;6.678;2023-03-24T00:07:44;12.70;99.90
9881;DHT22;4979;51.014;6.678;2023-03-24T00:10:13;12.70;99.90
9881;DHT22;4979;51.014;6.678;2023-03-24T00:12:40;12.80;99.90
9881;DHT22;4979;51.014;6.678;2023-03-24T00:15:10;12.70;99.90
9881;DHT22;4979;51.014;6.678;2023-03-24T00:17:36;12.80;99.90
9881;DHT22;4979;51.014;6.678;2023-03-24T00:20:05;12.70;99.90
9881;DHT22;4979;51.014;6.678;2023-03-24T00:22:40;12.70;99.90
9881;DHT22;4979;51.014;6.678;2023-03-24T00:25:08;12.80;99.90
9881;DHT22;4979;51.014;6.678;2023-03-24T00:27:34;12.70;99.90
9881;DHT22;4979;51.014;6.678;2023-03-24T00:30:05;12.80;99.90
9881;DHT22;4979;51.014;6.678;2023-03-24T00:32:31;12.70;99.90
9881;DHT22;4979;51.014;6.678;2023-03-24T00:34:57;12.80;99.90
9881;DHT22;4979;51.014;6.678;2023-03-24T00:37:23;12.80;99.90
9881;DHT22;4979;51.014;6.678;2023-03-24T00:39:48;12.80;99.90
9881;DHT22;4979;51.014;6.678;2023-03-24T00:42:15;12.80;99.90
9881;DHT22;4979;51.014;6.678;2023-03-24T00:44:41;12.80;99.90
9881;DHT22;4979;51.014;6.678;2023-03-24T00:47:09;12.80;99.90
9881;DHT22;4979;51.014;6.678;2023-03-24T00:49:36;12.80;99.90
9881;DHT22;4979;51.014;6.678;2023-03-24T00:52:14;12.80;99.90
9881;DHT22;4979;51.014;6.678;2023-03-24T00:54:42;12.80;99.90
9881;DHT22;4979;51.014;6.678;2023-03-24T00:57:11;12.70;99.90
9881;DHT22;4979;51.014;6.678;2023-03-24T00:59:47;12.70;99.90
9881;DHT22;4979;51.014;6.678;2023-03-24T01:02:17;12.70;99.90
9881;DHT22;4979;51.014;6.678;2023-03-24T01:04:47;12.80;99.90
9881;DHT22;4979;51.014;6.678;2023-03-24T01:07:19;12.70;99.90
9881;DHT22;4979;51.014;6.678;2023-03-24T01:09:45;12.80;99.90
9881;DHT22;4979;51.014;6.678;2023-03-24T01:12:17;12.80;99.90
9881;DHT22;4979;51.014;6.678;2023-03-24T01:14:44;12.90;99.90
9881;DHT22;4979;51.014;6.678;2023-03-24T01:17:09;13.00;99.90
9881;DHT22;4979;51.014;6.678;2023-03-24T01:22:01;13.30;99.90
9881;DHT22;4979;51.014;6.678;2023-03-24T01:24:27;13.30;99.90
9881;DHT22;4979;51.014;6.678;2023-03-24T01:26:52;13.60;99.90
9881;DHT22;4979;51.014;6.678;2023-03-24T01:29:18;13.30;99.90
9881;DHT22;4979;51.014;6.678;2023-03-24T01:31:44;13.40;99.90
9881;DHT22;4979;51.014;6.678;2023-03-24T01:34:09;13.40;99.90
9881;DHT22;4979;51.014;6.678;2023-03-24T01:36:35;13.30;99.90
9881;DHT22;4979;51.014;6.678;2023-03-24T01:39:00;13.20;99.90
9881;DHT22;4979;51.014;6.678;2023-03-24T01:41:35;13.20;99.90
9881;DHT22;4979;51.014;6.678;2023-03-24T01:44:22;13.20;99.90
9881;DHT22;4979;51.014;6.678;2023-03-24T01:46:48;13.20;99.90
9881;DHT22;4979;51.014;6.678;2023-03-24T01:49:14;13.20;99.90
9881;DHT22;4979;51.014;6.678;2023-03-24T01:51:44;13.10;99.90
9881;DHT22;4979;51.014;6.678;2023-03-24T01:54:41;13.10;99.90
9881;DHT22;4979;51.014;6.678;2023-03-24T01:59:38;13.10;99.90
9881;DHT22;4979;51.014;6.678;2023-03-24T02:02:04;13.10;99.90
9881;DHT22;4979;51.014;6.678;2023-03-24T02:04:33;13.10;99.90
9881;DHT22;4979;51.014;6.678;2023-03-24T02:07:21;13.10;99.90
9881;DHT22;4979;51.014;6.678;2023-03-24T02:09:47;13.10;99.90
9881;DHT22;4979;51.014;6.678;2023-03-24T02:12:13;13.20;99.90
9881;DHT22;4979;51.014;6.678;2023-03-24T02:14:39;13.10;99.90
9881;DHT22;4979;51.014;6.678;2023-03-24T02:17:46;13.10;99.90
9881;DHT22;4979;51.014;6.678;2023-03-24T02:20:44;13.00;99.90
9881;DHT22;4979;51.014;6.678;2023-03-24T02:23:55;13.20;99.90
9881;DHT22;4979;51.014;6.678;2023-03-24T02:34:40;13.30;99.90
9881;DHT22;4979;51.014;6.678;2023-03-24T02:37:35;13.50;99.90
9881;DHT22;4979;51.014;6.678;2023-03-24T02:40:28;13.60;99.90
9881;DHT22;4979;51.014;6.678;2023-03-24T02:43:16;13.70;99.90
9881;DHT22;4979;51.014;6.678;2023-03-24T02:48:33;13.70;99.90
9881;DHT22;4979;51.014;6.678;2023-03-24T02:51:11;13.80;99.90
9881;DHT22;4979;51.014;6.678;2023-03-24T03:02:13;14.00;99.90
9881;DHT22;4979;51.014;6.678;2023-03-24T03:04:51;14.00;99.90
9881;DHT22;4979;51.014;6.678;2023-03-24T03:07:23;14.10;99.90
9881;DHT22;4979;51.014;6.678;2023-03-24T03:10:11;14.10;99.90
9881;DHT22;4979;51.014;6.678;2023-03-24T03:12:40;14.10;99.90
9881;DHT22;4979;51.014;6.678;2023-03-24T03:15:13;14.10;99.90
9881;DHT22;4979;51.014;6.678;2023-03-24T03:17:47;14.10;99.90
9881;DHT22;4979;51.014;6.678;2023-03-24T03:20:20;14.10;99.90
9881;DHT22;4979;51.014;6.678;2023-03-24T03:22:55;14.00;99.90
9881;DHT22;4979;51.014;6.678;2023-03-24T03:25:28;14.00;99.90
9881;DHT22;4979;51.014;6.678;2023-03-24T03:27:57;14.00;99.90
9881;DHT22;4979;51.014;6.678;2023-03-24T03:30:31;14.00;99.90
9881;DHT22;4979;51.014;6.678;2023-03-24T03:33:09;14.00;99.90
9881;DHT22;4979;51.014;6.678;2023-03-24T03:36:02;14.00;99.90
9881;DHT22;4979;51.014;6.678;2023-03-24T03:38:59;14.00;99.90
9881;DHT22;4979;51.014;6.678;2023-03-24T03:41:25;14.00;99.90
9881;DHT22;4979;51.014;6.678;2023-03-24T03:43:51;14.10;99.90
9881;DHT22;4979;51.014;6.678;2023-03-24T03:46:18;14.00;99.90
9881;DHT22;4979;51.014;6.678;2023-03-24T03:48:44;14.10;99.90
9881;DHT22;4979;51.014;6.678;2023-03-24T03:51:10;14.00;99.90
9881;DHT22;4979;51.014;6.678;2023-03-24T03:53:46;14.00;99.90
9881;DHT22;4979;51.014;6.678;2023-03-24T03:56:13;14.00;99.90
9881;DHT22;4979;51.014;6.678;2023-03-24T03:58:43;14.00;99.90
9881;DHT22;4979;51.014;6.678;2023-03-24T04:01:12;14.00;99.90
9881;DHT22;4979;51.014;6.678;2023-03-24T04:04:03;14.10;99.90
9881;DHT22;4979;51.014;6.678;2023-03-24T04:09:06;14.10;99.90
9881;DHT22;4979;51.014;6.678;2023-03-24T04:31:12;13.90;99.90
9881;DHT22;4979;51.014;6.678;2023-03-24T04:33:58;13.80;99.90
9881;DHT22;4979;51.014;6.678;2023-03-24T04:37:04;13.60;99.90
9881;DHT22;4979;51.014;6.678;2023-03-24T04:39:35;13.50;99.90
9881;DHT22;4979;51.014;6.678;2023-03-24T04:42:05;13.40;99.90
9881;DHT22;4979;51.014;6.678;2023-03-24T04:44:32;13.30;99.90
9881;DHT22;4979;51.014;6.678;2023-03-24T04:46:59;13.20;99.90
9881;DHT22;4979;51.014;6.678;2023-03-24T04:49:26;13.20;99.90
9881;DHT22;4979;51.014;6.678;2023-03-24T04:51:53;13.20;99.90
9881;DHT22;4979;51.014;6.678;2023-03-24T04:54:20;13.10;99.90
9881;DHT22;4979;51.014;6.678;2023-03-24T04:56:49;13.10;99.90
9881;DHT22;4979;51.014;6.678;2023-03-24T04:59:15;13.00;99.90
9881;DHT22;4979;51.014;6.678;2023-03-24T05:01:43;13.00;99.90
9881;DHT22;4979;51.014;6.678;2023-03-24T05:04:15;12.90;99.90
9881;DHT22;4979;51.014;6.678;2023-03-24T05:06:40;12.90;99.90
9881;DHT22;4979;51.014;6.678;2023-03-24T05:11:32;12.80;99.90
9881;DHT22;4979;51.014;6.678;2023-03-24T05:16:24;12.70;99.90
9881;DHT22;4979;51.014;6.678;2023-03-24T05:18:49;12.60;99.90
9881;DHT22;4979;51.014;6.678;2023-03-24T05:21:15;12.60;99.90
9881;DHT22;4979;51.014;6.678;2023-03-24T05:26:07;12.50;99.90
9881;DHT22;4979;51.014;6.678;2023-03-24T05:28:32;12.40;99.90
9881;DHT22;4979;51.014;6.678;2023-03-24T05:30:58;12.30;99.90
9881;DHT22;4979;51.014;6.678;2023-03-24T05:35:51;12.20;99.90
9881;DHT22;4979;51.014;6.678;2023-03-24T05:38:17;12.10;99.90
9881;DHT22;4979;51.014;6.678;2023-03-24T05:40:42;12.10;99.90
9881;DHT22;4979;51.014;6.678;2023-03-24T05:43:08;12.00;99.90
9881;DHT22;4979;51.014;6.678;2023-03-24T05:45:34;11.90;99.90
9881;DHT22;4979;51.014;6.678;2023-03-24T05:47:59;11.90;99.90
9881;DHT22;4979;51.014;6.678;2023-03-24T05:52:51;11.80;99.90
9881;DHT22;4979;51.014;6.678;2023-03-24T05:55:17;11.80;99.90
9881;DHT22;4979;51.014;6.678;2023-03-24T05:57:44;11.70;99.90
9881;DHT22;4979;51.014;6.678;2023-03-24T06:00:10;11.60;99.90
9881;DHT22;4979;51.014;6.678;2023-03-24T06:02:44;11.50;99.90
9881;DHT22;4979;51.014;6.678;2023-03-24T06:05:11;11.50;99.90
9881;DHT22;4979;51.014;6.678;2023-03-24T06:07:37;11.40;99.90
9881;DHT22;4979;51.014;6.678;2023-03-24T06:10:04;11.50;99.90
9881;DHT22;4979;51.014;6.678;2023-03-24T06:12:32;11.40;99.90
9881;DHT22;4979;51.014;6.678;2023-03-24T06:14:57;11.40;99.90
9881;DHT22;4979;51.014;6.678;2023-03-24T06:17:23;11.40;99.90
9881;DHT22;4979;51.014;6.678;2023-03-24T06:19:50;11.40;99.90
9881;DHT22;4979;51.014;6.678;2023-03-24T06:22:19;11.40;99.90
9881;DHT22;4979;51.014;6.678;2023-03-24T06:24:45;11.30;99.90
9881;DHT22;4979;51.014;6.678;2023-03-24T06:27:15;11.30;99.90
9881;DHT22;4979;51.014;6.678;2023-03-24T06:29:42;11.20;99.90
9881;DHT22;4979;51.014;6.678;2023-03-24T06:32:09;11.10;99.90
9881;DHT22;4979;51.014;6.678;2023-03-24T06:34:35;11.10;99.90
9881;DHT22;4979;51.014;6.678;2023-03-24T06:37:02;11.10;99.90
9881;DHT22;4979;51.014;6.678;2023-03-24T06:39:27;11.10;99.90
9881;DHT22;4979;51.014;6.678;2023-03-24T06:41:53;11.10;99.90
9881;DHT22;4979;51.014;6.678;2023-03-24T06:54:03;11.00;99.90
9881;DHT22;4979;51.014;6.678;2023-03-24T06:58:55;11.00;99.90
9881;DHT22;4979;51.014;6.678;2023-03-24T07:03:48;11.00;99.90
9881;DHT22;4979;51.014;6.678;2023-03-24T07:06:14;11.00;99.90
9881;DHT22;4979;51.014;6.678;2023-03-24T07:08:40;11.10;99.90
9881;DHT22;4979;51.014;6.678;2023-03-24T07:11:06;11.10;99.90
9881;DHT22;4979;51.014;6.678;2023-03-24T07:13:34;11.10;99.90
9881;DHT22;4979;51.014;6.678;2023-03-24T07:15:59;11.10;99.90
9881;DHT22;4979;51.014;6.678;2023-03-24T07:18:25;11.10;99.90
9881;DHT22;4979;51.014;6.678;2023-03-24T07:20:51;11.10;99.90
9881;DHT22;4979;51.014;6.678;2023-03-24T07:23:16;11.00;99.90
9881;DHT22;4979;51.014;6.678;2023-03-24T07:28:09;11.00;99.90
9881;DHT22;4979;51.014;6.678;2023-03-24T07:30:35;11.00;99.90
9881;DHT22;4979;51.014;6.678;2023-03-24T07:33:02;10.90;99.90
9881;DHT22;4979;51.014;6.678;2023-03-24T07:35:29;10.90;99.90
9881;DHT22;4979;51.014;6.678;2023-03-24T07:37:58;11.00;99.90
9881;DHT22;4979;51.014;6.678;2023-03-24T07:40:24;11.00;99.90
9881;DHT22;4979;51.014;6.678;2023-03-24T07:45:16;11.00;99.90
9881;DHT22;4979;51.014;6.678;2023-03-24T07:47:45;11.00;99.90
9881;DHT22;4979;51.014;6.678;2023-03-24T07:50:12;11.00;99.90
9881;DHT22;4979;51.014;6.678;2023-03-24T07:52:40;11.20;99.90
9881;DHT22;4979;51.014;6.678;2023-03-24T07:55:07;11.20;99.90
9881;DHT22;4979;51.014;6.678;2023-03-24T07:57:34;11.20;99.90
9881;DHT22;4979;51.014;6.678;2023-03-24T08:00:03;11.20;99.90
9881;DHT22;4979;51.014;6.678;2023-03-24T08:02:35;11.30;99.90
9881;DHT22;4979;51.014;6.678;2023-03-24T08:05:00;11.20;99.90
9881;DHT22;4979;51.014;6.678;2023-03-24T08:07:26;11.20;99.90
9881;DHT22;4979;51.014;6.678;2023-03-24T08:09:52;11.40;99.90
9881;DHT22;4979;51.014;6.678;2023-03-24T08:12:18;11.60;99.90
9881;DHT22;4979;51.014;6.678;2023-03-24T08:14:43;11.80;99.90
9881;DHT22;4979;51.014;6.678;2023-03-24T08:17:09;11.90;99.90
9881;DHT22;4979;51.014;6.678;2023-03-24T08:19:34;12.00;99.90
9881;DHT22;4979;51.014;6.678;2023-03-24T08:22:00;12.40;99.90
9881;DHT22;4979;51.014;6.678;2023-03-24T08:24:26;12.60;99.90
9881;DHT22;4979;51.014;6.678;2023-03-24T08:26:51;12.70;99.90
9881;DHT22;4979;51.014;6.678;2023-03-24T08:29:17;12.80;99.90
9881;DHT22;4979;51.014;6.678;2023-03-24T08:34:09;12.60;99.90
9881;DHT22;4979;51.014;6.678;2023-03-24T08:36:36;12.80;99.90
9881;DHT22;4979;51.014;6.678;2023-03-24T08:39:02;12.90;99.90
9881;DHT22;4979;51.014;6.678;2023-03-24T08:41:30;13.10;99.90
9881;DHT22;4979;51.014;6.678;2023-03-24T08:44:00;13.00;99.90
9881;DHT22;4979;51.014;6.678;2023-03-24T08:48:53;13.10;99.90
9881;DHT22;4979;51.014;6.678;2023-03-24T08:51:19;13.30;99.90
9881;DHT22;4979;51.014;6.678;2023-03-24T08:53:44;13.20;99.90
9881;DHT22;4979;51.014;6.678;2023-03-24T08:58:36;13.60;99.90
9881;DHT22;4979;51.014;6.678;2023-03-24T09:01:02;13.50;99.90
9881;DHT22;4979;51.014;6.678;2023-03-24T09:05:55;13.80;99.90
9881;DHT22;4979;51.014;6.678;2023-03-24T09:08:24;14.00;99.90
9881;DHT22;4979;51.014;6.678;2023-03-24T09:10:49;13.80;99.90
9881;DHT22;4979;51.014;6.678;2023-03-24T09:13:17;13.80;99.90
9881;DHT22;4979;51.014;6.678;2023-03-24T09:15:48;13.80;99.90
9881;DHT22;4979;51.014;6.678;2023-03-24T09:18:14;13.80;99.90
9881;DHT22;4979;51.014;6.678;2023-03-24T09:20:40;13.90;99.90
9881;DHT22;4979;51.014;6.678;2023-03-24T09:23:06;13.50;99.90
9881;DHT22;4979;51.014;6.678;2023-03-24T09:25:31;13.70;99.90
9881;DHT22;4979;51.014;6.678;2023-03-24T09:27:57;13.90;99.90
9881;DHT22;4979;51.014;6.678;2023-03-24T09:30:23;14.20;99.90
9881;DHT22;4979;51.014;6.678;2023-03-24T09:32:48;14.20;99.90
9881;DHT22;4979;51.014;6.678;2023-03-24T09:35:14;14.50;99.90
9881;DHT22;4979;51.014;6.678;2023-03-24T09:37:41;14.80;99.90
9881;DHT22;4979;51.014;6.678;2023-03-24T09:40:22;14.60;99.90
9881;DHT22;4979;51.014;6.678;2023-03-24T09:43:01;14.70;99.90
9881;DHT22;4979;51.014;6.678;2023-03-24T09:45:29;14.70;99.90
9881;DHT22;4979;51.014;6.678;2023-03-24T09:47:59;14.20;99.90
9881;DHT22;4979;51.014;6.678;2023-03-24T09:50:28;13.90;99.90
9881;DHT22;4979;51.014;6.678;2023-03-24T09:53:03;13.90;99.90
9881;DHT22;4979;51.014;6.678;2023-03-24T09:55:31;14.40;99.90
9881;DHT22;4979;51.014;6.678;2023-03-24T09:58:04;14.60;99.90
9881;DHT22;4979;51.014;6.678;2023-03-24T10:00:33;14.50;99.90
9881;DHT22;4979;51.014;6.678;2023-03-24T10:03:16;14.80;99.90
9881;DHT22;4979;51.014;6.678;2023-03-24T10:08:35;14.90;99.90
9881;DHT22;4979;51.014;6.678;2023-03-24T10:16:36;14.20;99.90
9881;DHT22;4979;51.014;6.678;2023-03-24T10:22:05;14.00;99.90
9881;DHT22;4979;51.014;6.678;2023-03-24T10:24:40;14.10;99.90
9881;DHT22;4979;51.014;6.678;2023-03-24T10:27:19;14.10;99.90
9881;DHT22;4979;51.014;6.678;2023-03-24T10:29:48;13.90;99.90
9881;DHT22;4979;51.014;6.678;2023-03-24T10:32:24;14.00;99.90
9881;DHT22;4979;51.014;6.678;2023-03-24T10:34:57;14.40;99.90
9881;DHT22;4979;51.014;6.678;2023-03-24T10:37:25;14.40;99.90
9881;DHT22;4979;51.014;6.678;2023-03-24T10:39:51;14.50;99.90
9881;DHT22;4979;51.014;6.678;2023-03-24T10:42:20;14.20;99.90
9881;DHT22;4979;51.014;6.678;2023-03-24T10:44:50;14.00;99.90
9881;DHT22;4979;51.014;6.678;2023-03-24T10:47:18;14.00;99.90
9881;DHT22;4979;51.014;6.678;2023-03-24T10:50:05;13.90;99.90
9881;DHT22;4979;51.014;6.678;2023-03-24T10:52:38;13.90;99.90
9881;DHT22;4979;51.014;6.678;2023-03-24T10:55:05;13.90;99.90
9881;DHT22;4979;51.014;6.678;2023-03-24T10:57:32;13.80;99.90
9881;DHT22;4979;51.014;6.678;2023-03-24T11:00:24;13.80;99.90
9881;DHT22;4979;51.014;6.678;2023-03-24T11:03:10;14.40;99.90
9881;DHT22;4979;51.014;6.678;2023-03-24T11:05:38;14.40;99.90
9881;DHT22;4979;51.014;6.678;2023-03-24T11:08:24;14.30;99.90
9881;DHT22;4979;51.014;6.678;2023-03-24T11:10:53;15.10;99.90
9881;DHT22;4979;51.014;6.678;2023-03-24T11:13:27;15.30;99.90
9881;DHT22;4979;51.014;6.678;2023-03-24T11:18:33;15.90;99.90
9881;DHT22;4979;51.014;6.678;2023-03-24T11:21:01;16.00;99.90
9881;DHT22;4979;51.014;6.678;2023-03-24T11:23:33;15.90;99.90
9881;DHT22;4979;51.014;6.678;2023-03-24T11:26:17;16.10;99.90
9881;DHT22;4979;51.014;6.678;2023-03-24T11:28:53;15.60;99.90
9881;DHT22;4979;51.014;6.678;2023-03-24T11:31:25;15.60;99.90
9881;DHT22;4979;51.014;6.678;2023-03-24T11:34:05;15.00;99.90
9881;DHT22;4979;51.014;6.678;2023-03-24T11:39:13;15.10;99.90
9881;DHT22;4979;51.014;6.678;2023-03-24T11:41:43;15.10;99.90
9881;DHT22;4979;51.014;6.678;2023-03-24T11:44:20;15.40;99.90
9881;DHT22;4979;51.014;6.678;2023-03-24T11:46:52;15.10;99.90
9881;DHT22;4979;51.014;6.678;2023-03-24T11:49:23;15.20;99.90
9881;DHT22;4979;51.014;6.678;2023-03-24T11:51:52;15.30;99.90
9881;DHT22;4979;51.014;6.678;2023-03-24T11:54:22;15.30;99.90
9881;DHT22;4979;51.014;6.678;2023-03-24T11:56:56;15.10;99.90
9881;DHT22;4979;51.014;6.678;2023-03-24T11:59:39;15.30;99.90
9881;DHT22;4979;51.014;6.678;2023-03-24T12:12:55;15.90;99.90
9881;DHT22;4979;51.014;6.678;2023-03-24T12:18:18;16.30;99.90
9881;DHT22;4979;51.014;6.678;2023-03-24T12:23:59;16.40;99.90
9881;DHT22;4979;51.014;6.678;2023-03-24T12:26:30;16.70;99.90
9881;DHT22;4979;51.014;6.678;2023-03-24T12:32:22;16.80;99.90
9881;DHT22;4979;51.014;6.678;2023-03-24T12:37:54;16.70;99.90
9881;DHT22;4979;51.014;6.678;2023-03-24T12:40:54;16.50;99.90
9881;DHT22;4979;51.014;6.678;2023-03-24T12:43:26;16.00;99.90
9881;DHT22;4979;51.014;6.678;2023-03-24T12:45:55;15.90;99.90
9881;DHT22;4979;51.014;6.678;2023-03-24T12:54:36;16.00;99.90
9881;DHT22;4979;51.014;6.678;2023-03-24T12:57:17;15.90;99.90
9881;DHT22;4979;51.014;6.678;2023-03-24T12:59:53;15.70;99.90
9881;DHT22;4979;51.014;6.678;2023-03-24T13:02:38;15.40;99.90
9881;DHT22;4979;51.014;6.678;2023-03-24T13:05:19;15.40;99.90
9881;DHT22;4979;51.014;6.678;2023-03-24T13:07:49;15.50;99.90
9881;DHT22;4979;51.014;6.678;2023-03-24T13:10:25;15.60;99.90
9881;DHT22;4979;51.014;6.678;2023-03-24T13:13:19;15.80;99.90
9881;DHT22;4979;51.014;6.678;2023-03-24T13:15:57;15.80;99.90
9881;DHT22;4979;51.014;6.678;2023-03-24T13:18:50;15.70;99.90
9881;DHT22;4979;51.014;6.678;2023-03-24T13:21:18;15.60;99.90
9881;DHT22;4979;51.014;6.678;2023-03-24T13:24:06;15.40;99.90
9881;DHT22;4979;51.014;6.678;2023-03-24T13:26:42;15.40;99.90
9881;DHT22;4979;51.014;6.678;2023-03-24T13:32:10;15.30;99.90
9881;DHT22;4979;51.014;6.678;2023-03-24T13:34:43;15.50;99.90
9881;DHT22;4979;51.014;6.678;2023-03-24T13:37:20;15.60;99.90
9881;DHT22;4979;51.014;6.678;2023-03-24T13:39:56;15.40;99.90
9881;DHT22;4979;51.014;6.678;2023-03-24T13:42:32;15.30;99.90
9881;DHT22;4979;51.014;6.678;2023-03-24T13:45:01;15.20;99.90
9881;DHT22;4979;51.014;6.678;2023-03-24T13:47:47;15.10;99.90
9881;DHT22;4979;51.014;6.678;2023-03-24T13:50:14;15.20;99.90
9881;DHT22;4979;51.014;6.678;2023-03-24T13:52:46;15.30;99.90
9881;DHT22;4979;51.014;6.678;2023-03-24T13:55:26;15.30;99.90
9881;DHT22;4979;51.014;6.678;2023-03-24T13:58:22;15.20;99.90
9881;DHT22;4979;51.014;6.678;2023-03-24T14:01:04;15.20;99.90
9881;DHT22;4979;51.014;6.678;2023-03-24T14:03:32;15.20;99.90
9881;DHT22;4979;51.014;6.678;2023-03-24T14:06:00;15.10;99.90
9881;DHT22;4979;51.014;6.678;2023-03-24T14:09:05;14.80;99.90
9881;DHT22;4979;51.014;6.678;2023-03-24T14:11:45;14.40;99.90
9881;DHT22;4979;51.014;6.678;2023-03-24T14:17:10;14.00;99.90
9881;DHT22;4979;51.014;6.678;2023-03-24T14:19:44;14.10;99.90
9881;DHT22;4979;51.014;6.678;2023-03-24T14:22:34;14.20;99.90
9881;DHT22;4979;51.014;6.678;2023-03-24T14:25:25;14.60;99.90
9881;DHT22;4979;51.014;6.678;2023-03-24T14:31:01;15.00;99.90
9881;DHT22;4979;51.014;6.678;2023-03-24T14:36:00;15.30;99.90
9881;DHT22;4979;51.014;6.678;2023-03-24T14:38:34;15.50;99.90
9881;DHT22;4979;51.014;6.678;2023-03-24T14:41:47;15.40;99.90
9881;DHT22;4979;51.014;6.678;2023-03-24T14:43:57;15.40;99.90
9881;DHT22;4979;51.014;6.678;2023-03-24T14:46:42;15.50;99.90
9881;DHT22;4979;51.014;6.678;2023-03-24T14:49:21;15.50;99.90
9881;DHT22;4979;51.014;6.678;2023-03-24T14:52:02;15.40;99.90
9881;DHT22;4979;51.014;6.678;2023-03-24T14:57:30;15.40;99.90
9881;DHT22;4979;51.014;6.678;2023-03-24T15:03:10;15.50;99.90
9881;DHT22;4979;51.014;6.678;2023-03-24T15:05:40;15.50;99.90
9881;DHT22;4979;51.014;6.678;2023-03-24T15:08:18;15.30;99.90
9881;DHT22;4979;51.014;6.678;2023-03-24T15:10:54;15.20;99.90
9881;DHT22;4979;51.014;6.678;2023-03-24T15:13:43;15.20;99.90
9881;DHT22;4979;51.014;6.678;2023-03-24T15:18:46;15.20;99.90
9881;DHT22;4979;51.014;6.678;2023-03-24T15:21:14;15.00;99.90
9881;DHT22;4979;51.014;6.678;2023-03-24T15:26:12;14.90;99.90
9881;DHT22;4979;51.014;6.678;2023-03-24T15:33:38;14.80;99.90
9881;DHT22;4979;51.014;6.678;2023-03-24T15:36:13;14.70;99.90
9881;DHT22;4979;51.014;6.678;2023-03-24T15:38:44;14.70;99.90
9881;DHT22;4979;51.014;6.678;2023-03-24T15:41:12;14.60;99.90
9881;DHT22;4979;51.014;6.678;2023-03-24T15:43:44;14.60;99.90
9881;DHT22;4979;51.014;6.678;2023-03-24T15:46:30;14.60;99.90
9881;DHT22;4979;51.014;6.678;2023-03-24T15:48:57;14.50;99.90
9881;DHT22;4979;51.014;6.678;2023-03-24T15:52:01;14.30;99.90
9881;DHT22;4979;51.014;6.678;2023-03-24T15:54:40;12.90;99.90
9881;DHT22;4979;51.014;6.678;2023-03-24T15:57:14;12.40;99.90
9881;DHT22;4979;51.014;6.678;2023-03-24T15:59:49;12.50;99.90
9881;DHT22;4979;51.014;6.678;2023-03-24T16:02:40;12.50;99.90
9881;DHT22;4979;51.014;6.678;2023-03-24T16:05:27;12.50;99.90
9881;DHT22;4979;51.014;6.678;2023-03-24T16:08:07;12.50;99.90
9881;DHT22;4979;51.014;6.678;2023-03-24T16:13:22;12.20;99.90
9881;DHT22;4979;51.014;6.678;2023-03-24T16:16:00;12.10;99.90
9881;DHT22;4979;51.014;6.678;2023-03-24T16:18:34;12.00;99.90
9881;DHT22;4979;51.014;6.678;2023-03-24T16:21:02;11.90;99.90
9881;DHT22;4979;51.014;6.678;2023-03-24T16:23:33;11.90;99.90
9881;DHT22;4979;51.014;6.678;2023-03-24T16:25:58;11.70;99.90
9881;DHT22;4979;51.014;6.678;2023-03-24T16:28:24;11.60;99.90
9881;DHT22;4979;51.014;6.678;2023-03-24T16:31:02;11.40;99.90
9881;DHT22;4979;51.014;6.678;2023-03-24T16:33:28;11.30;99.90
9881;DHT22;4979;51.014;6.678;2023-03-24T16:35:58;11.30;99.90
9881;DHT22;4979;51.014;6.678;2023-03-24T16:38:25;11.30;99.90
9881;DHT22;4979;51.014;6.678;2023-03-24T16:40:55;11.40;99.90
9881;DHT22;4979;51.014;6.678;2023-03-24T16:45:49;12.10;99.90
9881;DHT22;4979;51.014;6.678;2023-03-24T16:48:15;11.60;99.90
9881;DHT22;4979;51.014;6.678;2023-03-24T16:50:43;11.70;99.90
9881;DHT22;4979;51.014;6.678;2023-03-24T16:53:10;11.80;99.90
9881;DHT22;4979;51.014;6.678;2023-03-24T16:55:37;11.90;99.90
9881;DHT22;4979;51.014;6.678;2023-03-24T16:58:04;12.00;99.90
9881;DHT22;4979;51.014;6.678;2023-03-24T17:00:31;11.90;99.90
9881;DHT22;4979;51.014;6.678;2023-03-24T17:02:57;11.80;99.90
9881;DHT22;4979;51.014;6.678;2023-03-24T17:05:29;11.80;99.90
9881;DHT22;4979;51.014;6.678;2023-03-24T17:07:55;11.80;99.90
9881;DHT22;4979;51.014;6.678;2023-03-24T17:10:25;11.80;99.90
9881;DHT22;4979;51.014;6.678;2023-03-24T17:12:53;11.80;99.90
9881;DHT22;4979;51.014;6.678;2023-03-24T17:15:24;11.90;99.90
9881;DHT22;4979;51.014;6.678;2023-03-24T17:17:50;11.80;99.90
9881;DHT22;4979;51.014;6.678;2023-03-24T17:20:16;11.80;99.90
9881;DHT22;4979;51.014;6.678;2023-03-24T17:22:43;11.70;99.90
9881;DHT22;4979;51.014;6.678;2023-03-24T17:25:11;11.60;99.90
9881;DHT22;4979;51.014;6.678;2023-03-24T17:27:37;11.60;99.90
9881;DHT22;4979;51.014;6.678;2023-03-24T17:30:04;11.50;99.90
9881;DHT22;4979;51.014;6.678;2023-03-24T17:32:31;11.50;99.90
9881;DHT22;4979;51.014;6.678;2023-03-24T17:34:58;11.50;99.90
9881;DHT22;4979;51.014;6.678;2023-03-24T17:37:24;11.40;99.90
9881;DHT22;4979;51.014;6.678;2023-03-24T17:39:52;11.40;99.90
9881;DHT22;4979;51.014;6.678;2023-03-24T17:42:20;11.40;99.90
9881;DHT22;4979;51.014;6.678;2023-03-24T17:44:46;11.50;99.90
9881;DHT22;4979;51.014;6.678;2023-03-24T17:47:12;11.50;99.90
9881;DHT22;4979;51.014;6.678;2023-03-24T17:49:37;11.50;99.90
9881;DHT22;4979;51.014;6.678;2023-03-24T17:52:03;11.40;99.90
9881;DHT22;4979;51.014;6.678;2023-03-24T17:56:55;11.40;99.90
9881;DHT22;4979;51.014;6.678;2023-03-24T17:59:20;11.40;99.90
9881;DHT22;4979;51.014;6.678;2023-03-24T18:01:46;11.40;99.90
9881;DHT22;4979;51.014;6.678;2023-03-24T18:04:12;11.30;99.90
9881;DHT22;4979;51.014;6.678;2023-03-24T18:06:38;11.30;99.90
9881;DHT22;4979;51.014;6.678;2023-03-24T18:09:07;11.20;99.90
9881;DHT22;4979;51.014;6.678;2023-03-24T18:11:33;11.20;99.90
9881;DHT22;4979;51.014;6.678;2023-03-24T18:13:59;11.20;99.90
9881;DHT22;4979;51.014;6.678;2023-03-24T18:16:25;11.20;99.90
9881;DHT22;4979;51.014;6.678;2023-03-24T18:26:14;11.10;99.90
9881;DHT22;4979;51.014;6.678;2023-03-24T18:28:40;11.10;99.90
9881;DHT22;4979;51.014;6.678;2023-03-24T18:33:37;11.10;99.90
9881;DHT22;4979;51.014;6.678;2023-03-24T18:36:02;11.20;99.90
9881;DHT22;4979;51.014;6.678;2023-03-24T18:38:28;11.20;99.90
9881;DHT22;4979;51.014;6.678;2023-03-24T18:40:58;11.20;99.90
9881;DHT22;4979;51.014;6.678;2023-03-24T18:43:24;11.30;99.90
9881;DHT22;4979;51.014;6.678;2023-03-24T18:45:50;11.30;99.90
9881;DHT22;4979;51.014;6.678;2023-03-24T18:50:42;11.30;99.90
9881;DHT22;4979;51.014;6.678;2023-03-24T18:55:34;11.20;99.90
9881;DHT22;4979;51.014;6.678;2023-03-24T18:57:59;11.30;99.90
9881;DHT22;4979;51.014;6.678;2023-03-24T19:02:51;11.20;99.90
9881;DHT22;4979;51.014;6.678;2023-03-24T19:05:17;11.20;99.90
9881;DHT22;4979;51.014;6.678;2023-03-24T19:07:43;11.20;99.90
9881;DHT22;4979;51.014;6.678;2023-03-24T19:10:11;11.20;99.90
9881;DHT22;4979;51.014;6.678;2023-03-24T19:12:37;11.20;99.90
9881;DHT22;4979;51.014;6.678;2023-03-24T19:15:03;11.20;99.90
9881;DHT22;4979;51.014;6.678;2023-03-24T19:17:29;11.20;99.90
9881;DHT22;4979;51.014;6.678;2023-03-24T19:19:55;11.20;99.90
9881;DHT22;4979;51.014;6.678;2023-03-24T19:24:48;11.30;99.90
9881;DHT22;4979;51.014;6.678;2023-03-24T19:29:40;11.30;99.90
9881;DHT22;4979;51.014;6.678;2023-03-24T19:32:05;11.40;99.90
9881;DHT22;4979;51.014;6.678;2023-03-24T19:41:51;11.30;99.90
9881;DHT22;4979;51.014;6.678;2023-03-24T19:44:17;11.30;99.90